Terminal Aerodrome Forecast
Issued by NWS Duluth, MN

Home | Current Version | Previous Version | Text Only | Print | Product List | Glossary On
Versions: 1 2 3 4 5 6 7 8 9 10 11 12 13 14
000
FTUS43 KDLH 251100
TAFINL
TAF
KINL 251120Z 2512/2612 07005KT P6SM OVC060
     FM251400 09007KT P6SM SCT060
     FM260000 08003KT P6SM SKC=

USA.gov is the U.S. government's official web portal to all federal, state and local government web resources and services.